Time;durP1;ratioP1;P1;durP2;ratioP2;P2;SDS_P1;SDS_P2;PMS_P1;PMS_P2;Temp;Humidity;BMP_temperature;BMP_pressure;BME280_temperature;BME280_humidity;BME280_pressure;Samples;Min_cycle;Max_cycle;Signal;HPM_P1;HPM_P2
2022/06/13 00:00:22;;;;;;;2.83;2.10;;;16.60;99.90;;;;;;5036951;28;20196;-84
2022/06/13 00:02:48;;;;;;;4.10;2.03;;;;;;;;;;5036995;28;20194;-85
2022/06/13 00:05:16;;;;;;;2.17;1.83;;;16.50;99.90;;;;;;5035838;28;20179;-84
2022/06/13 00:07:42;;;;;;;4.20;1.90;;;16.60;99.90;;;;;;5036978;28;20172;-85
2022/06/13 00:10:09;;;;;;;3.93;1.90;;;16.50;99.90;;;;;;5035337;28;20257;-85
2022/06/13 00:12:35;;;;;;;2.30;1.70;;;16.60;99.90;;;;;;5035919;28;20178;-85
2022/06/13 00:15:02;;;;;;;2.13;1.90;;;16.50;99.90;;;;;;5037235;28;20209;-85
2022/06/13 00:17:28;;;;;;;5.07;2.30;;;;;;;;;;5037614;28;20273;-85
2022/06/13 00:19:54;;;;;;;3.13;2.17;;;16.50;99.90;;;;;;5037260;28;20197;-84
2022/06/13 00:22:20;;;;;;;2.83;2.00;;;16.40;99.90;;;;;;5036177;28;20190;-84
2022/06/13 00:24:46;;;;;;;2.80;1.90;;;;;;;;;;5038125;28;20180;-85
2022/06/13 00:27:12;;;;;;;2.23;1.90;;;16.50;99.90;;;;;;5037396;28;20642;-86
2022/06/13 00:29:38;;;;;;;3.60;1.87;;;16.50;99.90;;;;;;5036554;28;20205;-84
2022/06/13 00:32:04;;;;;;;2.40;1.90;;;16.50;99.90;;;;;;5036759;28;20183;-84
2022/06/13 00:34:30;;;;;;;2.07;1.87;;;16.40;99.90;;;;;;5035548;28;20189;-84
2022/06/13 00:36:56;;;;;;;9.17;1.80;;;;;;;;;;5035873;28;20637;-86
2022/06/13 00:39:22;;;;;;;4.60;2.40;;;16.50;99.90;;;;;;5036839;28;20195;-86
2022/06/13 00:41:48;;;;;;;3.03;1.80;;;16.40;99.90;;;;;;5039458;28;20179;-86
2022/06/13 00:44:28;;;;;;;2.30;1.67;;;16.40;99.90;;;;;;5038561;28;20189;-86
2022/06/13 00:46:54;;;;;;;2.70;2.23;;;16.50;99.90;;;;;;5039466;28;20181;-85
2022/06/13 00:49:44;;;;;;;3.50;2.30;;;16.50;99.90;;;;;;5039122;28;20206;-85
2022/06/13 00:52:21;;;;;;;2.57;2.10;;;16.50;99.90;;;;;;5039306;28;20182;-85
2022/06/13 00:54:49;;;;;;;2.20;1.97;;;16.50;99.90;;;;;;5038489;28;20270;-85
2022/06/13 00:57:25;;;;;;;2.53;1.97;;;16.60;99.90;;;;;;5035995;28;20178;-85
2022/06/13 00:59:56;;;;;;;2.60;2.03;;;16.60;99.90;;;;;;5037212;28;20199;-85
2022/06/13 01:02:22;;;;;;;4.03;2.43;;;16.60;99.90;;;;;;5036418;28;20305;-85
2022/06/13 01:04:52;;;;;;;1.80;1.70;;;16.60;99.90;;;;;;5037213;28;20234;-85
2022/06/13 01:07:21;;;;;;;2.67;1.90;;;16.50;99.90;;;;;;5038489;28;20190;-85
2022/06/13 01:12:35;;;;;;;2.50;2.17;;;16.60;99.90;;;;;;5041059;28;20185;-85
2022/06/13 01:15:22;;;;;;;3.53;2.27;;;16.70;99.90;;;;;;5038665;28;20204;-86
2022/06/13 01:18:29;;;;;;;2.43;2.10;;;16.60;99.90;;;;;;5040396;28;20163;-85
2022/06/13 01:21:07;;;;;;;3.10;2.00;;;16.60;99.90;;;;;;5038517;28;20178;-86
2022/06/13 01:23:32;;;;;;;4.83;1.87;;;16.60;99.90;;;;;;5039300;28;20174;-87
2022/06/13 01:26:04;;;;;;;3.23;2.47;;;16.50;99.90;;;;;;5039694;28;20676;-86
2022/06/13 01:28:55;;;;;;;5.17;2.10;;;16.50;99.90;;;;;;5040027;28;20199;-86
2022/06/13 01:31:29;;;;;;;2.60;1.93;;;16.50;99.90;;;;;;5038693;28;20634;-86
2022/06/13 01:34:32;;;;;;;4.97;2.20;;;16.40;99.90;;;;;;5040135;28;20185;-86
2022/06/13 01:37:06;;;;;;;2.37;2.13;;;16.40;99.90;;;;;;5038582;28;20183;-86
2022/06/13 01:39:50;;;;;;;2.63;1.93;;;16.40;99.90;;;;;;5039318;28;20295;-86
2022/06/13 01:42:27;;;;;;;2.83;2.30;;;16.30;99.90;;;;;;5038405;28;20187;-86
2022/06/13 01:45:27;;;;;;;3.20;2.63;;;16.30;99.90;;;;;;5038484;28;20171;-86
2022/06/13 01:47:53;;;;;;;3.83;2.30;;;16.20;99.90;;;;;;5040348;28;20213;-85
2022/06/13 01:50:42;;;;;;;4.20;2.60;;;16.20;99.90;;;;;;5038913;28;20195;-86
2022/06/13 01:53:39;;;;;;;3.20;2.90;;;16.10;99.90;;;;;;5040605;28;20164;-85
2022/06/13 01:56:10;;;;;;;3.70;2.53;;;16.10;99.90;;;;;;5038204;28;20264;-85
2022/06/13 01:58:42;;;;;;;4.93;2.80;;;16.10;99.90;;;;;;5040193;28;20205;-86
2022/06/13 02:01:41;;;;;;;2.93;2.50;;;16.10;99.90;;;;;;5038592;28;20179;-86
2022/06/13 02:04:25;;;;;;;2.93;2.50;;;16.20;99.90;;;;;;5038938;28;20171;-85
2022/06/13 02:07:01;;;;;;;2.60;2.37;;;16.20;99.90;;;;;;5039206;28;20183;-85
2022/06/13 02:09:31;;;;;;;3.40;2.60;;;16.20;99.90;;;;;;5038840;28;20209;-85
2022/06/13 02:11:57;;;;;;;3.13;2.80;;;16.20;99.90;;;;;;5041014;28;20156;-85
2022/06/13 02:14:22;;;;;;;6.13;3.00;;;16.20;99.90;;;;;;5038404;28;20656;-85
2022/06/13 02:16:57;;;;;;;3.77;2.60;;;16.20;99.90;;;;;;5037829;28;20182;-85
2022/06/13 02:19:26;;;;;;;5.00;3.30;;;16.20;99.90;;;;;;5037838;28;20194;-86
2022/06/13 02:21:58;;;;;;;3.40;3.00;;;16.10;99.90;;;;;;5040902;28;20219;-85
2022/06/13 02:24:31;;;;;;;6.27;3.93;;;16.20;99.90;;;;;;5037025;28;20170;-85
2022/06/13 02:26:59;;;;;;;5.93;3.90;;;16.10;99.90;;;;;;5036760;28;20261;-85
2022/06/13 02:29:32;;;;;;;7.07;3.73;;;16.10;99.90;;;;;;5036352;28;20195;-84
2022/06/13 02:32:23;;;;;;;4.40;3.40;;;16.10;99.90;;;;;;5036146;28;20167;-84
2022/06/13 02:35:07;;;;;;;4.40;3.50;;;16.20;99.90;;;;;;5036301;28;20207;-84
2022/06/13 02:37:39;;;;;;;4.40;3.30;;;16.20;99.90;;;;;;5035632;28;20534;-84
2022/06/13 02:40:19;;;;;;;5.67;3.70;;;16.20;99.90;;;;;;5036322;28;20203;-84
2022/06/13 02:43:12;;;;;;;5.17;4.20;;;16.20;99.90;;;;;;5035855;28;20194;-85
2022/06/13 02:45:51;;;;;;;4.57;3.30;;;16.10;99.90;;;;;;5036414;28;20213;-83
2022/06/13 02:48:38;;;;;;;5.50;3.50;;;16.20;99.90;;;;;;5037573;28;20333;-85
2022/06/13 02:51:35;;;;;;;3.23;2.80;;;16.00;99.90;;;;;;5036380;28;20205;-85
2022/06/13 02:54:32;;;;;;;4.23;3.60;;;16.10;99.90;;;;;;5036031;28;20172;-85
2022/06/13 02:57:25;;;;;;;4.53;2.93;;;16.10;99.90;;;;;;5034359;28;20191;-85
2022/06/13 03:00:15;;;;;;;5.20;3.03;;;16.10;99.90;;;;;;5036369;28;20566;-83
2022/06/13 03:02:54;;;;;;;3.77;3.20;;;16.10;99.90;;;;;;5034764;28;20179;-84
2022/06/13 03:05:42;;;;;;;3.63;3.00;;;16.10;99.90;;;;;;5035304;28;20518;-84
2022/06/13 03:08:19;;;;;;;4.43;2.97;;;16.00;99.90;;;;;;5034504;28;20193;-84
2022/06/13 03:11:06;;;;;;;3.00;2.30;;;16.00;99.90;;;;;;5034919;28;20229;-84
2022/06/13 03:13:36;;;;;;;6.93;3.10;;;16.00;99.90;;;;;;5035251;28;20660;-84
2022/06/13 03:16:32;;;;;;;4.37;2.50;;;16.10;99.90;;;;;;5033817;28;20615;-83
2022/06/13 03:19:07;;;;;;;4.40;3.30;;;15.90;99.90;;;;;;5034678;28;20191;-83
2022/06/13 03:21:47;;;;;;;6.00;3.10;;;16.30;99.90;;;;;;5035181;28;20591;-83
2022/06/13 03:24:18;;;;;;;4.10;2.67;;;16.00;99.90;;;;;;5035462;28;20174;-84
2022/06/13 03:26:52;;;;;;;7.07;3.27;;;16.20;99.90;;;;;;5036443;28;20288;-84
2022/06/13 03:29:29;;;;;;;4.73;3.20;;;16.00;99.90;;;;;;5036332;28;20236;-83
2022/06/13 03:32:02;;;;;;;5.33;3.03;;;15.90;99.90;;;;;;5036631;28;20201;-83
2022/06/13 03:34:33;;;;;;;5.60;3.30;;;15.90;99.90;;;;;;5038016;28;20201;-84
2022/06/13 03:37:22;;;;;;;5.50;3.50;;;15.90;99.90;;;;;;5036728;28;20556;-83
2022/06/13 03:39:58;;;;;;;6.13;3.23;;;15.90;99.90;;;;;;5036226;28;20210;-84
2022/06/13 03:42:33;;;;;;;5.07;3.03;;;16.00;99.90;;;;;;5036355;28;20729;-84
2022/06/13 03:45:08;;;;;;;5.43;3.43;;;15.90;99.90;;;;;;5036987;28;20219;-84
2022/06/13 03:47:46;;;;;;;6.43;3.60;;;15.90;99.90;;;;;;5038618;28;20190;-84
2022/06/13 03:50:33;;;;;;;5.83;3.07;;;15.90;99.90;;;;;;5038282;28;20604;-83
2022/06/13 03:53:06;;;;;;;4.23;2.80;;;15.70;99.90;;;;;;5038717;28;20170;-83
2022/06/13 03:55:43;;;;;;;3.70;2.97;;;15.80;99.90;;;;;;5037034;28;20198;-84
2022/06/13 03:58:37;;;;;;;4.10;3.17;;;15.70;99.90;;;;;;5037527;28;20532;-84
2022/06/13 04:01:07;;;;;;;3.30;3.00;;;;;;;;;;5038668;28;20179;-85
2022/06/13 04:03:33;;;;;;;3.13;2.80;;;;;;;;;;5038287;28;20636;-84
2022/06/13 04:06:06;;;;;;;4.17;3.40;;;15.80;99.90;;;;;;5038098;28;20182;-86
2022/06/13 04:08:36;;;;;;;3.70;2.93;;;15.80;99.90;;;;;;5038007;28;20214;-86
2022/06/13 04:11:02;;;;;;;5.23;3.27;;;;;;;;;;5036831;28;20187;-84
2022/06/13 04:13:44;;;;;;;7.17;4.00;;;;;;;;;;5038176;28;20218;-85
2022/06/13 04:16:27;;;;;;;4.43;3.50;;;15.70;99.90;;;;;;5045589;28;20198;-84
2022/06/13 04:19:09;;;;;;;4.37;2.80;;;15.80;99.90;;;;;;5041761;28;20198;-85
2022/06/13 04:22:11;;;;;;;4.53;3.00;;;15.90;99.90;;;;;;5041898;28;20187;-84
2022/06/13 04:24:53;;;;;;;3.57;2.97;;;15.70;99.90;;;;;;5041768;28;20198;-84
2022/06/13 04:27:24;;;;;;;4.10;3.07;;;15.60;99.90;;;;;;5042284;28;20175;-84
2022/06/13 04:30:15;;;;;;;3.87;3.23;;;15.70;99.90;;;;;;5041758;28;20203;-83
2022/06/13 04:32:50;;;;;;;4.00;3.53;;;15.70;99.90;;;;;;5041248;28;20180;-84
2022/06/13 04:35:17;;;;;;;4.83;3.43;;;15.70;99.90;;;;;;5039305;28;20239;-85
2022/06/13 04:37:44;;;;;;;7.27;3.60;;;15.60;99.90;;;;;;5039423;28;20174;-84
2022/06/13 04:40:16;;;;;;;4.27;3.30;;;15.60;99.90;;;;;;5040202;28;20222;-84
2022/06/13 04:42:43;;;;;;;4.20;3.53;;;15.60;99.90;;;;;;5039530;28;20167;-84
2022/06/13 04:45:29;;;;;;;4.07;3.67;;;15.60;99.90;;;;;;5039528;28;20215;-84
2022/06/13 04:47:57;;;;;;;7.53;3.60;;;15.60;99.90;;;;;;5040847;28;20177;-84
2022/06/13 04:50:35;;;;;;;5.83;3.40;;;15.80;99.90;;;;;;5039898;28;20203;-84
2022/06/13 04:53:03;;;;;;;3.63;3.30;;;15.60;99.90;;;;;;5039701;28;20187;-84
2022/06/13 04:55:38;;;;;;;4.03;3.40;;;15.60;99.90;;;;;;5039686;28;20206;-84
2022/06/13 04:58:04;;;;;;;3.83;3.40;;;15.60;99.90;;;;;;5040242;28;20165;-85
2022/06/13 05:00:32;;;;;;;5.43;3.50;;;15.60;99.90;;;;;;5039257;28;20194;-85
2022/06/13 05:02:58;;;;;;;5.03;3.20;;;;;;;;;;5039386;28;20181;-84
2022/06/13 05:05:58;;;;;;;4.97;3.30;;;15.60;99.90;;;;;;5040966;28;20170;-84
2022/06/13 05:08:30;;;;;;;4.83;3.30;;;15.50;99.90;;;;;;4997401;28;20203;-85
2022/06/13 05:11:09;;;;;;;4.23;3.83;;;15.70;99.90;;;;;;5039243;28;20267;-84
2022/06/13 05:13:36;;;;;;;4.73;3.97;;;15.90;99.90;;;;;;5042906;28;20167;-84
2022/06/13 05:19:20;;;;;;;6.87;3.80;;;15.80;99.90;;;;;;5041794;28;20205;-84
2022/06/13 05:21:58;;;;;;;3.57;3.23;;;15.70;99.90;;;;;;5040285;28;20174;-85
2022/06/13 05:24:33;;;;;;;5.80;3.50;;;15.90;99.90;;;;;;5041239;28;20190;-85
2022/06/13 05:27:01;;;;;;;4.43;3.53;;;15.90;99.90;;;;;;5038884;28;20185;-85
2022/06/13 05:29:28;;;;;;;4.80;3.77;;;15.90;99.90;;;;;;5040218;28;20240;-85
2022/06/13 05:31:54;;;;;;;3.67;3.33;;;16.10;99.90;;;;;;5038452;28;20178;-84
2022/06/13 05:34:32;;;;;;;5.10;3.57;;;16.10;99.90;;;;;;5037655;28;20176;-84
2022/06/13 05:36:59;;;;;;;4.37;3.20;;;16.40;99.90;;;;;;5037201;28;20193;-84
2022/06/13 05:39:24;;;;;;;3.90;3.47;;;15.90;99.90;;;;;;5035911;28;20252;-84
2022/06/13 05:41:50;;;;;;;3.97;3.43;;;;;;;;;;5037533;28;20171;-84
2022/06/13 05:44:17;;;;;;;4.50;3.30;;;;;;;;;;5039119;28;20174;-84
2022/06/13 05:46:44;;;;;;;4.43;3.13;;;;;;;;;;5038935;28;20178;-85
2022/06/13 05:49:12;;;;;;;3.83;3.00;;;16.30;99.90;;;;;;5041252;28;20213;-84
2022/06/13 05:51:38;;;;;;;3.70;3.00;;;16.30;99.90;;;;;;5040688;28;20193;-85
2022/06/13 05:54:04;;;;;;;4.20;2.63;;;;;;;;;;5039721;28;20186;-84
2022/06/13 05:56:30;;;;;;;3.37;2.87;;;16.50;99.90;;;;;;5038765;28;20202;-84
2022/06/13 05:58:56;;;;;;;3.93;3.13;;;16.30;99.90;;;;;;5040029;28;20194;-84
2022/06/13 06:01:22;;;;;;;3.60;2.67;;;16.30;99.90;;;;;;5040082;28;20183;-84
2022/06/13 06:03:48;;;;;;;3.93;3.00;;;16.20;99.90;;;;;;5038696;28;20182;-84
2022/06/13 06:06:23;;;;;;;4.83;3.00;;;16.40;99.90;;;;;;5038744;28;20548;-84
2022/06/13 06:08:50;;;;;;;3.13;2.83;;;16.50;99.90;;;;;;5039400;28;20636;-84
2022/06/13 06:11:16;;;;;;;3.87;3.20;;;16.70;99.90;;;;;;5039767;28;20214;-84
2022/06/13 06:13:42;;;;;;;4.63;2.77;;;16.50;99.90;;;;;;5038981;28;20206;-84
2022/06/13 06:16:13;;;;;;;3.50;2.80;;;16.60;99.90;;;;;;5040098;28;20558;-84
2022/06/13 06:18:39;;;;;;;8.13;3.10;;;16.50;99.90;;;;;;5038712;28;20198;-84
2022/06/13 06:21:04;;;;;;;4.17;2.80;;;16.60;99.90;;;;;;5039234;28;20174;-83
2022/06/13 06:23:30;;;;;;;2.80;2.60;;;;;;;;;;5040516;28;20629;-84
2022/06/13 06:25:58;;;;;;;4.03;3.07;;;16.90;99.90;;;;;;5038351;28;20186;-83
2022/06/13 06:28:26;;;;;;;3.83;3.20;;;16.80;99.90;;;;;;5039062;28;20186;-84
2022/06/13 06:30:54;;;;;;;4.23;2.90;;;16.80;99.90;;;;;;5039873;28;20542;-84
2022/06/13 06:33:21;;;;;;;4.77;3.20;;;;;;;;;;5038807;28;20187;-84
2022/06/13 06:35:48;;;;;;;5.60;2.93;;;17.00;99.90;;;;;;5038953;28;20324;-84
2022/06/13 06:38:14;;;;;;;3.57;2.97;;;17.20;99.90;;;;;;5039790;28;20201;-84
2022/06/13 06:40:41;;;;;;;2.67;2.47;;;17.00;99.90;;;;;;5039042;28;20238;-83
2022/06/13 06:43:07;;;;;;;3.43;2.80;;;17.00;99.90;;;;;;5039478;28;20700;-84
2022/06/13 06:45:33;;;;;;;3.47;3.17;;;17.10;99.90;;;;;;5039658;28;20544;-84
2022/06/13 06:47:59;;;;;;;4.07;3.07;;;17.10;99.90;;;;;;5039417;28;20220;-84
2022/06/13 06:50:27;;;;;;;6.20;3.07;;;17.10;99.90;;;;;;5038661;28;20211;-85
2022/06/13 06:52:54;;;;;;;3.83;3.00;;;17.10;99.90;;;;;;5039557;28;20181;-85
2022/06/13 07:00:52;;;;;;;4.70;3.20;;;17.20;99.90;;;;;;5042326;28;20166;-85
2022/06/13 07:03:18;;;;;;;3.50;2.60;;;17.40;99.90;;;;;;5043546;28;20174;-84
2022/06/13 07:05:45;;;;;;;6.43;3.30;;;17.40;99.90;;;;;;5039479;28;20292;-84
2022/06/13 07:08:11;;;;;;;4.80;3.40;;;17.40;99.90;;;;;;5038136;28;20225;-84
2022/06/13 07:10:37;;;;;;;3.67;2.97;;;17.40;99.90;;;;;;5038394;28;20172;-85
2022/06/13 07:13:03;;;;;;;3.60;3.20;;;17.40;99.90;;;;;;5036451;28;20206;-84
2022/06/13 07:15:28;;;;;;;5.60;3.23;;;17.40;99.90;;;;;;5036664;28;20256;-83
2022/06/13 07:17:55;;;;;;;3.47;2.70;;;17.50;99.90;;;;;;5038363;28;20679;-84
2022/06/13 07:20:21;;;;;;;7.27;3.30;;;17.50;99.90;;;;;;5037623;28;20211;-84
2022/06/13 07:22:53;;;;;;;3.00;2.70;;;17.50;99.90;;;;;;5035911;28;20175;-84
2022/06/13 07:25:25;;;;;;;5.13;3.40;;;17.50;99.90;;;;;;5038050;28;20174;-84
2022/06/13 07:27:51;;;;;;;5.47;3.60;;;17.50;99.90;;;;;;5037145;28;20177;-84
2022/06/13 07:30:19;;;;;;;5.17;3.20;;;17.60;99.90;;;;;;5036222;28;20209;-84
2022/06/13 07:32:45;;;;;;;3.50;3.20;;;17.60;99.90;;;;;;5036527;28;20188;-83
2022/06/13 07:35:14;;;;;;;4.87;2.90;;;17.60;99.90;;;;;;5036412;28;20560;-84
2022/06/13 07:38:22;;;;;;;3.30;2.53;;;17.70;99.90;;;;;;5035062;28;20177;-84
2022/06/13 07:40:30;;;;;;;7.43;3.07;;;17.80;99.90;;;;;;5033095;28;20308;-83
2022/06/13 07:42:59;;;;;;;3.20;2.83;;;17.70;99.90;;;;;;5037170;28;20170;-83
2022/06/13 07:45:28;;;;;;;3.50;2.70;;;17.70;99.90;;;;;;5036129;28;20264;-83
2022/06/13 07:47:55;;;;;;;3.13;2.70;;;17.50;99.90;;;;;;5035263;28;20177;-82
2022/06/13 07:50:24;;;;;;;2.87;2.57;;;17.90;99.90;;;;;;5036329;28;20211;-82
2022/06/13 07:52:51;;;;;;;5.07;2.60;;;18.00;99.90;;;;;;5039401;28;20177;-82
2022/06/13 07:55:19;;;;;;;3.90;2.53;;;18.00;99.90;;;;;;5039432;28;20687;-82
2022/06/13 07:57:46;;;;;;;3.13;2.70;;;17.90;99.90;;;;;;5037100;28;20224;-82
2022/06/13 08:00:26;;;;;;;3.60;2.73;;;18.20;99.90;;;;;;5037386;28;20201;-82
2022/06/13 08:02:53;;;;;;;5.00;2.77;;;18.00;99.90;;;;;;5037338;28;20176;-82
2022/06/13 08:05:20;;;;;;;3.13;2.87;;;18.00;99.90;;;;;;5038716;28;20177;-82
2022/06/13 08:07:45;;;;;;;3.43;2.70;;;18.00;99.90;;;;;;5042542;28;20181;-82
2022/06/13 08:10:12;;;;;;;3.97;3.03;;;;;;;;;;5039539;28;20202;-83
2022/06/13 08:12:43;;;;;;;3.53;2.63;;;18.50;99.90;;;;;;5041714;28;20261;-83
2022/06/13 08:15:10;;;;;;;3.83;2.50;;;18.40;99.90;;;;;;5041442;28;20193;-82
2022/06/13 08:17:35;;;;;;;3.73;2.47;;;18.70;99.90;;;;;;5039902;28;20175;-82
2022/06/13 08:20:02;;;;;;;3.73;2.30;;;18.60;99.90;;;;;;5041476;28;20191;-83
2022/06/13 08:22:29;;;;;;;4.37;2.63;;;18.50;99.90;;;;;;5039989;28;20209;-83
2022/06/13 08:24:54;;;;;;;3.83;2.50;;;18.60;99.90;;;;;;5040217;28;20178;-83
2022/06/13 08:27:20;;;;;;;3.33;2.60;;;18.60;99.90;;;;;;5043517;28;20640;-83
2022/06/13 08:29:46;;;;;;;5.77;2.90;;;;;;;;;;5046572;28;20263;-82
2022/06/13 08:32:13;;;;;;;4.57;2.70;;;18.70;99.90;;;;;;5042962;28;20534;-82
2022/06/13 08:34:39;;;;;;;5.60;2.60;;;18.60;99.90;;;;;;5039593;28;20184;-83
2022/06/13 08:37:05;;;;;;;3.70;2.53;;;18.20;99.90;;;;;;5039936;28;20644;-81
2022/06/13 08:39:31;;;;;;;5.20;2.43;;;;;;;;;;5040332;28;20201;-82
2022/06/13 08:42:29;;;;;;;4.20;2.80;;;18.30;99.90;;;;;;5040580;28;20655;-83
2022/06/13 08:45:14;;;;;;;6.80;2.73;;;18.60;99.90;;;;;;5038992;28;20189;-82
2022/06/13 08:47:51;;;;;;;4.30;3.17;;;18.80;99.90;;;;;;5041197;28;20170;-82
2022/06/13 08:50:30;;;;;;;5.70;3.17;;;19.00;99.90;;;;;;5040133;28;20683;-81
2022/06/13 08:53:03;;;;;;;2.97;2.67;;;19.30;99.90;;;;;;5040035;28;20173;-82
2022/06/13 08:55:52;;;;;;;3.33;2.60;;;19.20;99.90;;;;;;5040676;28;20198;-82
2022/06/13 08:58:28;;;;;;;5.60;2.70;;;19.30;99.90;;;;;;5040433;28;20163;-83
2022/06/13 09:01:01;;;;;;;3.87;2.73;;;19.20;99.90;;;;;;5039295;28;20166;-82
2022/06/13 09:03:52;;;;;;;4.23;2.13;;;18.90;99.90;;;;;;5040101;28;20267;-83
2022/06/13 09:06:21;;;;;;;11.93;2.83;;;18.70;99.90;;;;;;5028776;28;20187;-82
2022/06/13 09:09:16;;;;;;;4.37;2.83;;;18.60;99.90;;;;;;5040200;28;20214;-83
2022/06/13 09:12:06;;;;;;;5.93;2.43;;;18.50;99.90;;;;;;5039587;28;20525;-82
2022/06/13 09:14:43;;;;;;;4.23;2.33;;;18.90;99.90;;;;;;5037552;28;20167;-83
2022/06/13 09:17:23;;;;;;;6.33;2.73;;;19.10;99.90;;;;;;5039410;28;20186;-84
2022/06/13 09:20:34;;;;;;;3.67;2.40;;;19.10;99.90;;;;;;5039197;28;20269;-83
2022/06/13 09:23:19;;;;;;;4.27;2.27;;;19.20;99.90;;;;;;4963247;28;20184;-83
2022/06/13 09:25:58;;;;;;;5.23;2.17;;;19.40;99.90;;;;;;4964083;28;20203;-84
2022/06/13 09:28:37;;;;;;;3.97;2.10;;;19.90;99.90;;;;;;5024251;28;20194;-84
2022/06/13 09:31:09;;;;;;;3.47;2.40;;;19.80;99.90;;;;;;5038966;28;20185;-84
2022/06/13 09:33:39;;;;;;;5.33;2.00;;;19.70;99.90;;;;;;5039193;28;20189;-84
2022/06/13 09:36:29;;;;;;;6.53;2.60;;;20.00;99.90;;;;;;5039319;28;20614;-84
2022/06/13 09:39:10;;;;;;;2.03;1.83;;;20.10;99.90;;;;;;5040682;28;20197;-84
2022/06/13 09:41:57;;;;;;;5.53;2.60;;;20.00;99.90;;;;;;5040472;28;20229;-83
2022/06/13 09:45:00;;;;;;;4.33;2.80;;;19.70;99.90;;;;;;5038691;28;20236;-84
2022/06/13 09:47:37;;;;;;;6.20;3.00;;;19.20;99.90;;;;;;5040517;28;20186;-84
2022/06/13 09:50:09;;;;;;;4.57;2.90;;;19.00;99.90;;;;;;5040046;28;20202;-84
2022/06/13 09:52:53;;;;;;;5.20;2.80;;;18.90;99.90;;;;;;5039021;28;20652;-84
2022/06/13 09:55:35;;;;;;;9.33;3.17;;;19.00;99.90;;;;;;5038639;28;20198;-85
2022/06/13 09:58:35;;;;;;;7.43;2.90;;;20.00;99.90;;;;;;5037605;28;20170;-84
2022/06/13 10:01:11;;;;;;;6.00;2.70;;;20.10;99.90;;;;;;5038465;28;20616;-85
2022/06/13 10:03:48;;;;;;;6.57;3.07;;;20.50;99.90;;;;;;5038934;28;20527;-84
2022/06/13 10:06:33;;;;;;;8.03;3.33;;;20.50;99.90;;;;;;5037040;28;20624;-85
2022/06/13 10:09:18;;;;;;;5.07;2.40;;;20.80;99.90;;;;;;5037651;28;20714;-85
2022/06/13 10:11:56;;;;;;;7.20;2.80;;;21.00;99.90;;;;;;5036282;28;20228;-84
2022/06/13 10:14:28;;;;;;;4.77;2.50;;;22.00;99.90;;;;;;5036555;28;20197;-84
2022/06/13 10:17:03;;;;;;;5.80;2.17;;;21.90;99.90;;;;;;5038100;28;20208;-83
2022/06/13 10:19:41;;;;;;;5.83;2.30;;;22.20;99.90;;;;;;5035800;28;20207;-84
2022/06/13 10:22:10;;;;;;;5.23;2.23;;;22.30;99.90;;;;;;5038485;28;20174;-83
2022/06/13 10:24:55;;;;;;;9.17;2.70;;;22.60;99.90;;;;;;5035174;28;20187;-83
2022/06/13 10:27:21;;;;;;;4.67;2.53;;;22.70;99.90;;;;;;5037058;28;20265;-84
2022/06/13 10:30:13;;;;;;;3.53;2.27;;;22.50;99.90;;;;;;5036208;28;20206;-85
2022/06/13 10:33:21;;;;;;;3.73;2.20;;;22.50;99.90;;;;;;5041539;28;20260;-85
2022/06/13 10:36:25;;;;;;;6.47;2.53;;;22.70;99.90;;;;;;5037338;28;20226;-83
2022/06/13 10:39:11;;;;;;;4.90;2.87;;;22.70;99.90;;;;;;5019323;28;20208;-84
2022/06/13 10:41:45;;;;;;;4.47;2.53;;;23.00;99.90;;;;;;5039096;28;20165;-84
2022/06/13 10:44:18;;;;;;;6.30;2.80;;;23.10;99.90;;;;;;5039175;28;20177;-85
2022/06/13 10:46:56;;;;;;;7.33;2.83;;;23.10;99.90;;;;;;5037271;28;20209;-84
2022/06/13 10:49:31;;;;;;;6.57;2.40;;;23.40;99.90;;;;;;5037917;28;20204;-84
2022/06/13 10:52:03;;;;;;;4.33;2.00;;;23.30;99.90;;;;;;5038757;28;20204;-84
2022/06/13 10:54:35;;;;;;;7.63;2.93;;;22.80;99.90;;;;;;5038980;28;20330;-85
2022/06/13 10:57:16;;;;;;;7.13;2.10;;;22.50;99.90;;;;;;5040401;28;20285;-84
2022/06/13 10:59:42;;;;;;;4.77;1.97;;;22.50;99.90;;;;;;5036800;28;20204;-83
2022/06/13 11:02:20;;;;;;;5.00;1.80;;;22.40;99.90;;;;;;5037824;28;20173;-83
2022/06/13 11:05:01;;;;;;;3.50;1.70;;;22.60;99.90;;;;;;5037640;28;20178;-84
2022/06/13 11:07:27;;;;;;;5.73;1.80;;;;;;;;;;5038029;28;20278;-84
2022/06/13 11:09:58;;;;;;;5.43;2.00;;;23.30;99.90;;;;;;5037869;28;20314;-84
2022/06/13 11:12:27;;;;;;;4.73;2.10;;;23.60;99.90;;;;;;5038284;28;20179;-84
2022/06/13 11:23:19;;;;;;;4.67;1.60;;;24.70;99.90;;;;;;5040006;28;20180;-86
2022/06/13 11:25:56;;;;;;;3.53;1.13;;;25.00;99.90;;;;;;5037378;28;20209;-87
2022/06/13 11:28:25;;;;;;;4.03;1.37;;;24.60;99.90;;;;;;5037731;28;20241;-86
2022/06/13 11:31:15;;;;;;;4.87;1.40;;;24.70;98.60;;;;;;5037541;28;20238;-84
2022/06/13 11:33:40;;;;;;;2.47;1.20;;;24.60;96.90;;;;;;5036585;28;20212;-84
2022/06/13 11:36:15;;;;;;;4.60;1.60;;;24.50;94.30;;;;;;5035815;28;20563;-84
2022/06/13 11:39:02;;;;;;;3.33;1.37;;;24.50;91.40;;;;;;5034945;28;20194;-84
2022/06/13 11:41:45;;;;;;;4.30;2.10;;;24.80;97.20;;;;;;5038000;28;20174;-85
2022/06/13 11:44:21;;;;;;;7.07;2.00;;;25.10;99.60;;;;;;5041109;28;20158;-82
2022/06/13 11:46:53;;;;;;;4.63;1.50;;;25.40;97.40;;;;;;5051725;28;20244;-83
2022/06/13 11:49:26;;;;;;;3.83;1.43;;;25.80;99.90;;;;;;5046619;28;20205;-86
2022/06/13 11:51:57;;;;;;;5.03;1.83;;;25.70;94.50;;;;;;5043026;28;20293;-83
2022/06/13 11:54:38;;;;;;;3.80;1.30;;;25.70;97.40;;;;;;5038478;28;20162;-83
2022/06/13 11:57:25;;;;;;;5.93;1.67;;;25.70;97.00;;;;;;5036862;28;20202;-84
2022/06/13 11:59:56;;;;;;;7.00;2.17;;;26.00;94.40;;;;;;5038042;28;20212;-85
2022/06/13 12:02:48;;;;;;;7.00;1.73;;;25.90;93.60;;;;;;5038442;28;20185;-84
2022/06/13 12:05:28;;;;;;;3.70;1.70;;;25.90;86.70;;;;;;5039556;28;20182;-84
2022/06/13 12:08:03;;;;;;;3.93;1.60;;;25.90;91.70;;;;;;5038924;28;20259;-86
2022/06/13 12:10:36;;;;;;;5.57;1.47;;;26.00;95.00;;;;;;5039869;28;20197;-85
2022/06/13 12:13:02;;;;;;;4.33;1.30;;;26.10;90.00;;;;;;5038827;28;20178;-85
2022/06/13 12:15:41;;;;;;;4.33;1.70;;;26.40;95.20;;;;;;5039693;28;20203;-85
2022/06/13 12:18:31;;;;;;;3.37;1.50;;;26.50;93.10;;;;;;5039085;28;20214;-84
2022/06/13 12:21:07;;;;;;;2.77;1.40;;;26.50;91.60;;;;;;5039964;28;20253;-83
2022/06/13 12:23:47;;;;;;;3.00;1.47;;;26.80;90.50;;;;;;5038382;28;20160;-83
2022/06/13 12:26:36;;;;;;;4.37;1.53;;;27.00;90.00;;;;;;5035619;28;20171;-84
2022/06/13 12:29:32;;;;;;;2.60;1.40;;;26.70;83.50;;;;;;5035693;28;20205;-83
2022/06/13 12:32:15;;;;;;;3.67;1.40;;;26.80;89.70;;;;;;5036985;28;20182;-84
2022/06/13 12:34:59;;;;;;;3.57;1.47;;;26.50;78.20;;;;;;5036811;28;20202;-83
2022/06/13 12:37:37;;;;;;;4.37;1.50;;;26.10;80.30;;;;;;5039509;28;20174;-83
2022/06/13 12:40:18;;;;;;;4.30;1.80;;;26.00;79.70;;;;;;5041351;28;20197;-84
2022/06/13 12:43:30;;;;;;;3.53;1.43;;;25.50;90.20;;;;;;5039654;28;20179;-82
2022/06/13 12:46:14;;;;;;;3.53;1.30;;;24.70;90.00;;;;;;5038202;28;20180;-84
2022/06/13 12:49:14;;;;;;;4.80;1.67;;;25.70;90.30;;;;;;5040928;28;20205;-84
2022/06/13 12:51:47;;;;;;;4.63;1.90;;;25.80;89.20;;;;;;5040332;28;20182;-83
2022/06/13 12:54:36;;;;;;;5.47;1.87;;;25.30;86.50;;;;;;5040159;28;20170;-84
2022/06/13 12:57:20;;;;;;;2.83;1.93;;;25.50;86.90;;;;;;5041836;28;20198;-85
2022/06/13 13:00:41;;;;;;;4.87;1.87;;;25.90;83.60;;;;;;5042104;28;20198;-84
2022/06/13 13:03:30;;;;;;;3.30;1.77;;;26.20;83.60;;;;;;5018286;28;20190;-85
2022/06/13 13:06:18;;;;;;;2.83;1.40;;;26.10;81.10;;;;;;5040929;28;20167;-84
2022/06/13 13:09:27;;;;;;;4.13;1.40;;;26.20;88.80;;;;;;5040966;28;20749;-84
2022/06/13 13:12:24;;;;;;;5.47;1.70;;;26.40;91.60;;;;;;5040885;28;20171;-84
2022/06/13 13:15:19;;;;;;;6.13;1.60;;;26.80;80.60;;;;;;5041846;28;20191;-84
2022/06/13 13:17:58;;;;;;;5.20;1.80;;;26.90;83.40;;;;;;5020102;28;20548;-84
2022/06/13 13:20:46;;;;;;;2.77;1.13;;;26.80;75.70;;;;;;5042780;28;20193;-84
2022/06/13 13:23:43;;;;;;;2.10;1.30;;;26.80;76.50;;;;;;5045743;28;20158;-83
2022/06/13 13:26:25;;;;;;;3.63;1.37;;;26.90;77.40;;;;;;5043345;28;20187;-84
2022/06/13 13:29:28;;;;;;;5.07;1.60;;;27.00;86.00;;;;;;5042152;28;20201;-84
2022/06/13 13:32:12;;;;;;;5.17;1.90;;;27.30;79.20;;;;;;5041494;28;20230;-84
2022/06/13 13:34:56;;;;;;;4.17;1.70;;;27.30;87.10;;;;;;5044485;28;20185;-82
2022/06/13 13:37:36;;;;;;;2.33;1.60;;;27.40;74.60;;;;;;5047279;28;20278;-82
2022/06/13 13:40:21;;;;;;;7.50;2.00;;;27.20;77.60;;;;;;5054282;28;20698;-83
2022/06/13 13:43:07;;;;;;;3.20;1.70;;;26.80;75.60;;;;;;5048281;28;20209;-82
2022/06/13 13:45:48;;;;;;;4.90;1.57;;;26.70;75.30;;;;;;5043634;28;20179;-83
2022/06/13 13:48:28;;;;;;;3.60;1.30;;;26.70;70.90;;;;;;5040852;28;20177;-82
2022/06/13 13:51:04;;;;;;;4.07;1.47;;;26.70;73.70;;;;;;5039816;28;20176;-83
2022/06/13 13:53:46;;;;;;;7.20;2.07;;;26.50;79.00;;;;;;5039829;28;20182;-83
2022/06/13 13:56:33;;;;;;;4.67;1.80;;;26.10;78.60;;;;;;5040446;28;20199;-83
2022/06/13 13:59:00;;;;;;;2.70;1.47;;;26.10;81.20;;;;;;5039694;28;20200;-82